createdAt,value
2023-05-03T00:00:05.153Z,0.74
2023-05-03T00:01:05.017Z,0.79
2023-05-03T00:02:05.032Z,0.78
2023-05-03T00:03:05.068Z,0.71
2023-05-03T00:04:05.037Z,0.61
2023-05-03T00:05:06.079Z,0.67
2023-05-03T00:06:05.109Z,0.62
2023-05-03T00:07:05.115Z,0.79
2023-05-03T00:08:05.136Z,0.88
2023-05-03T00:09:05.163Z,0.78
2023-05-03T00:10:05.355Z,0.65
2023-05-03T00:11:05.316Z,0.82
2023-05-03T00:12:05.336Z,0.45
2023-05-03T00:13:05.333Z,0.62
2023-05-03T00:14:05.349Z,0.98
2023-05-03T00:15:05.367Z,0.62
2023-05-03T00:16:05.379Z,0.67
2023-05-03T00:17:05.557Z,0.72
2023-05-03T00:18:05.566Z,0.75
2023-05-03T00:19:05.534Z,0.82
2023-05-03T00:20:05.689Z,0.83
2023-05-03T00:21:05.589Z,0.60
2023-05-03T00:22:05.637Z,0.51
2023-05-03T00:23:05.668Z,0.66
2023-05-03T00:24:05.692Z,0.79
2023-05-03T00:25:05.703Z,0.97
2023-05-03T00:26:05.724Z,0.72
2023-05-03T00:27:05.740Z,0.62
2023-05-03T00:28:05.761Z,0.57
2023-05-03T00:29:05.787Z,0.66
2023-05-03T00:30:05.994Z,0.52
2023-05-03T00:31:05.923Z,0.72
2023-05-03T00:32:05.848Z,0.99
2023-05-03T00:33:05.908Z,0.66
2023-05-03T00:34:05.901Z,0.69
2023-05-03T00:35:05.934Z,0.83
2023-05-03T00:36:05.947Z,0.95
2023-05-03T00:37:05.963Z,0.66
2023-05-03T00:38:06.042Z,0.78
2023-05-03T00:39:06.083Z,0.85
2023-05-03T00:40:06.238Z,0.67
2023-05-03T00:41:06.128Z,0.75
2023-05-03T00:42:06.161Z,0.90
2023-05-03T00:43:06.221Z,0.99
2023-05-03T00:44:06.230Z,0.58
2023-05-03T00:45:06.344Z,0.50
2023-05-03T00:46:16.147Z,0.67
2023-05-03T00:47:07.352Z,0.69
2023-05-03T00:48:06.434Z,0.61
2023-05-03T00:49:06.309Z,0.57
2023-05-03T00:50:06.599Z,0.62
2023-05-03T00:51:06.332Z,0.66
2023-05-03T00:52:06.315Z,0.42
2023-05-03T00:53:06.350Z,0.91
2023-05-03T00:54:06.329Z,0.84
2023-05-03T00:55:06.345Z,0.74
2023-05-03T00:56:06.376Z,0.68
2023-05-03T00:57:06.367Z,0.68
2023-05-03T00:58:06.365Z,0.50
2023-05-03T00:59:06.396Z,0.41
2023-05-03T01:00:06.435Z,0.80
2023-05-03T01:01:06.383Z,0.46
2023-05-03T01:02:06.459Z,0.55
2023-05-03T01:03:06.484Z,0.69
2023-05-03T01:04:06.516Z,0.69
2023-05-03T01:05:06.387Z,0.69
2023-05-03T01:06:06.391Z,0.79
2023-05-03T01:07:06.382Z,0.88
2023-05-03T01:08:06.377Z,0.62
2023-05-03T01:09:06.370Z,0.49
2023-05-03T01:10:06.405Z,0.84
2023-05-03T01:11:06.401Z,0.83
2023-05-03T01:12:06.438Z,0.64
2023-05-03T01:13:06.394Z,0.56
2023-05-03T01:14:06.401Z,0.51
2023-05-03T01:15:06.411Z,0.58
2023-05-03T01:16:06.460Z,0.68
2023-05-03T01:17:06.410Z,0.77
2023-05-03T01:18:06.490Z,0.82
2023-05-03T01:19:06.422Z,0.62
2023-05-03T01:20:06.628Z,0.86
2023-05-03T01:21:06.449Z,0.67
2023-05-03T01:22:06.493Z,0.87
2023-05-03T01:23:06.499Z,0.71
2023-05-03T01:24:06.515Z,0.70
2023-05-03T01:25:06.546Z,0.82
2023-05-03T01:26:06.592Z,0.59
2023-05-03T01:27:06.609Z,0.78
2023-05-03T01:28:06.640Z,0.81
2023-05-03T01:29:06.657Z,0.78
2023-05-03T01:30:06.721Z,0.84
2023-05-03T01:31:06.789Z,0.92
2023-05-03T01:32:06.801Z,0.78
2023-05-03T01:33:06.835Z,0.66
2023-05-03T01:34:06.828Z,1.04
2023-05-03T01:35:06.839Z,0.60
2023-05-03T01:36:06.965Z,0.89
2023-05-03T01:37:06.985Z,0.87
2023-05-03T01:38:07.021Z,0.88
2023-05-03T01:39:07.039Z,0.79
2023-05-03T01:40:07.163Z,0.64
2023-05-03T01:41:07.105Z,0.70
2023-05-03T01:42:07.119Z,0.86
2023-05-03T01:43:07.153Z,0.77
2023-05-03T01:44:07.195Z,0.94
2023-05-03T01:45:07.210Z,0.79
2023-05-03T01:46:07.366Z,0.71
2023-05-03T01:47:07.314Z,1.10
2023-05-03T01:48:07.359Z,0.82
2023-05-03T01:49:07.355Z,0.78
2023-05-03T01:50:07.394Z,0.95
2023-05-03T01:51:07.419Z,0.77
2023-05-03T01:52:07.451Z,0.72
2023-05-03T01:53:07.481Z,0.60
2023-05-03T01:54:07.515Z,0.72
2023-05-03T01:55:07.537Z,0.77
2023-05-03T01:56:07.559Z,1.02
2023-05-03T01:57:07.622Z,0.92
2023-05-03T01:58:07.637Z,0.74
2023-05-03T01:59:07.677Z,0.82
2023-05-03T02:00:07.681Z,1.06
2023-05-03T02:01:07.746Z,1.04
2023-05-03T02:02:07.768Z,0.61
2023-05-03T02:03:07.891Z,0.63
2023-05-03T02:04:07.833Z,0.64
2023-05-03T02:05:07.823Z,0.67
2023-05-03T02:06:07.916Z,1.00
2023-05-03T02:07:07.902Z,0.60
2023-05-03T02:08:07.923Z,0.67
2023-05-03T02:09:07.950Z,0.68
2023-05-03T02:10:07.981Z,0.73
2023-05-03T02:11:08.045Z,0.66
2023-05-03T02:12:08.039Z,0.62
2023-05-03T02:13:08.127Z,0.66
2023-05-03T02:14:08.136Z,0.64
2023-05-03T02:15:08.183Z,0.79
2023-05-03T02:16:08.234Z,1.15
2023-05-03T02:17:08.607Z,0.63
2023-05-03T02:18:08.318Z,0.80
2023-05-03T02:19:08.276Z,0.93
2023-05-03T02:20:08.277Z,1.01
2023-05-03T02:21:08.304Z,0.70
2023-05-03T02:22:08.265Z,0.73
2023-05-03T02:23:08.283Z,0.73
2023-05-03T02:24:08.256Z,0.75
2023-05-03T02:25:08.284Z,0.88
2023-05-03T02:26:08.280Z,0.97
2023-05-03T02:27:08.248Z,1.09
2023-05-03T02:28:08.242Z,0.93
2023-05-03T02:29:08.238Z,0.74
2023-05-03T02:30:08.263Z,0.81
2023-05-03T02:31:08.293Z,0.88
2023-05-03T02:32:08.253Z,0.83
2023-05-03T02:33:08.313Z,0.93
2023-05-03T02:34:08.267Z,0.84
2023-05-03T02:35:08.271Z,0.60
2023-05-03T02:36:08.266Z,0.64
2023-05-03T02:37:08.266Z,0.99
2023-05-03T02:38:08.268Z,0.92
2023-05-03T02:39:08.293Z,0.65
2023-05-03T02:40:08.321Z,0.70
2023-05-03T02:41:08.343Z,0.81
2023-05-03T02:42:08.350Z,0.77
2023-05-03T02:43:08.384Z,0.91
2023-05-03T02:44:08.429Z,0.73
2023-05-03T02:45:08.470Z,0.77
2023-05-03T02:46:08.549Z,0.44
2023-05-03T02:47:08.535Z,0.61
2023-05-03T02:48:08.735Z,0.76
2023-05-03T02:49:08.601Z,0.68
2023-05-03T02:50:08.645Z,0.32
2023-05-03T02:51:08.727Z,0.36
2023-05-03T02:52:08.729Z,0.88
2023-05-03T02:53:08.782Z,0.96
2023-05-03T02:54:08.836Z,1.09
2023-05-03T02:55:08.890Z,0.83
2023-05-03T02:56:08.955Z,0.80
2023-05-03T02:57:09.010Z,0.69
2023-05-03T02:58:09.076Z,1.06
2023-05-03T02:59:09.153Z,0.95
2023-05-03T03:00:09.255Z,1.10
2023-05-03T03:01:09.406Z,0.97
2023-05-03T03:02:09.452Z,1.13
2023-05-03T03:03:09.542Z,0.96
2023-05-03T03:04:09.582Z,0.99
2023-05-03T03:05:09.572Z,1.20
2023-05-03T03:06:09.766Z,1.34
2023-05-03T03:07:09.688Z,1.01
2023-05-03T03:08:09.722Z,1.30
2023-05-03T03:09:09.771Z,1.27
2023-05-03T03:10:09.779Z,1.19
2023-05-03T03:11:09.804Z,1.20
2023-05-03T03:12:09.820Z,1.19
2023-05-03T03:13:09.847Z,1.29
2023-05-03T03:14:09.870Z,1.45
2023-05-03T03:15:09.893Z,1.20
2023-05-03T03:16:09.960Z,1.05
2023-05-03T03:17:09.958Z,1.33
2023-05-03T03:18:10.036Z,1.30
2023-05-03T03:19:10.009Z,1.00
2023-05-03T03:20:10.024Z,1.23
2023-05-03T03:21:10.067Z,1.73
2023-05-03T03:22:10.093Z,1.55
2023-05-03T03:23:10.096Z,1.11
2023-05-03T03:24:10.130Z,1.25
2023-05-03T03:25:10.175Z,1.58
2023-05-03T03:26:10.197Z,1.40
2023-05-03T03:27:10.231Z,1.51
2023-05-03T03:28:10.292Z,1.38
2023-05-03T03:29:10.304Z,1.41
2023-05-03T03:30:10.335Z,1.25
2023-05-03T03:31:10.396Z,1.72
2023-05-03T03:32:10.406Z,1.37
2023-05-03T03:33:10.466Z,1.55
2023-05-03T03:34:10.472Z,1.68
2023-05-03T03:35:10.515Z,1.68
2023-05-03T03:36:10.569Z,1.90
2023-05-03T03:37:10.602Z,1.43
2023-05-03T03:38:10.649Z,1.40
2023-05-03T03:39:10.664Z,1.49
2023-05-03T03:40:10.725Z,1.57
2023-05-03T03:41:10.772Z,1.47
2023-05-03T03:42:10.794Z,1.99
2023-05-03T03:43:10.839Z,1.73
2023-05-03T03:44:10.887Z,1.78
2023-05-03T03:45:10.961Z,1.64
2023-05-03T03:46:10.970Z,1.44
2023-05-03T03:47:11.057Z,1.62
2023-05-03T03:48:11.083Z,1.44
2023-05-03T03:49:11.095Z,2.09
2023-05-03T03:50:11.157Z,1.62
2023-05-03T03:51:11.199Z,1.73
2023-05-03T03:52:11.266Z,1.93
2023-05-03T03:53:11.294Z,1.58
2023-05-03T03:54:11.363Z,1.82
2023-05-03T03:55:11.402Z,2.02
2023-05-03T03:56:11.465Z,1.64
2023-05-03T03:57:11.498Z,2.13
2023-05-03T03:58:11.548Z,2.10
2023-05-03T03:59:11.597Z,1.67
2023-05-03T04:00:11.644Z,1.81
2023-05-03T04:01:11.718Z,1.74
2023-05-03T04:02:11.872Z,2.24
2023-05-03T04:03:11.980Z,1.68
2023-05-03T04:04:11.952Z,1.83
2023-05-03T04:05:11.863Z,2.03
2023-05-03T04:06:11.938Z,2.24
2023-05-03T04:07:11.910Z,2.07
2023-05-03T04:08:11.914Z,1.86
2023-05-03T04:09:11.925Z,1.91
2023-05-03T04:10:11.934Z,1.89
2023-05-03T04:11:11.967Z,1.97
2023-05-03T04:12:11.970Z,1.59
2023-05-03T04:13:11.974Z,1.89
2023-05-03T04:14:11.997Z,2.18
2023-05-03T04:15:11.996Z,1.78
2023-05-03T04:16:12.022Z,1.73
2023-05-03T04:17:12.132Z,1.49
2023-05-03T04:18:12.081Z,1.48
2023-05-03T04:19:12.068Z,2.20
2023-05-03T04:20:12.140Z,1.58
2023-05-03T04:21:12.192Z,1.31
2023-05-03T04:22:12.241Z,1.49
2023-05-03T04:23:12.290Z,1.24
2023-05-03T04:24:12.332Z,1.72
2023-05-03T04:25:12.373Z,1.44
2023-05-03T04:26:23.856Z,1.67
2023-05-03T04:27:13.452Z,1.50
2023-05-03T04:28:12.465Z,1.56
2023-05-03T04:29:12.470Z,1.79
2023-05-03T04:30:12.468Z,2.16
2023-05-03T04:31:12.581Z,1.38
2023-05-03T04:32:12.509Z,2.02
2023-05-03T04:33:12.536Z,1.87
2023-05-03T04:34:12.532Z,2.07
2023-05-03T04:35:12.716Z,1.74
2023-05-03T04:36:12.551Z,2.15
2023-05-03T04:37:12.557Z,1.87
2023-05-03T04:38:12.583Z,1.91
2023-05-03T04:39:12.594Z,1.88
2023-05-03T04:40:12.620Z,2.58
2023-05-03T04:41:14.836Z,2.19
2023-05-03T04:42:12.664Z,1.74
2023-05-03T04:43:12.623Z,2.40
2023-05-03T04:44:12.653Z,1.75
2023-05-03T04:45:12.648Z,2.28
2023-05-03T04:46:12.714Z,2.12
2023-05-03T04:47:12.701Z,2.29
2023-05-03T04:48:12.772Z,2.45
2023-05-03T04:49:12.716Z,2.58
2023-05-03T04:50:12.706Z,2.10
2023-05-03T04:51:12.702Z,2.61
2023-05-03T04:52:12.725Z,2.09
2023-05-03T04:53:12.717Z,2.50
2023-05-03T04:54:12.753Z,1.98
2023-05-03T04:55:12.734Z,2.49
2023-05-03T04:56:12.761Z,2.39
2023-05-03T04:57:12.758Z,2.46
2023-05-03T04:58:12.792Z,2.56
2023-05-03T04:59:12.808Z,2.67
2023-05-03T05:00:12.813Z,2.52
2023-05-03T05:01:12.857Z,2.50
2023-05-03T05:02:12.839Z,2.13
2023-05-03T05:03:12.986Z,2.42
2023-05-03T05:04:12.884Z,2.67
2023-05-03T05:05:12.872Z,2.61
2023-05-03T05:06:12.948Z,2.67
2023-05-03T05:07:12.886Z,2.52
2023-05-03T05:08:12.911Z,2.63
2023-05-03T05:09:12.917Z,2.13
2023-05-03T05:10:12.949Z,2.20
2023-05-03T05:11:12.959Z,2.43
2023-05-03T05:12:12.990Z,2.09
2023-05-03T05:13:12.985Z,2.47
2023-05-03T05:14:12.994Z,1.90
2023-05-03T05:15:13.008Z,2.35
2023-05-03T05:16:13.022Z,1.86
2023-05-03T05:17:13.086Z,2.34
2023-05-03T05:18:13.069Z,2.32
2023-05-03T05:19:13.083Z,2.57
2023-05-03T05:20:13.136Z,1.89
2023-05-03T05:21:13.174Z,1.97
2023-05-03T05:22:13.248Z,2.23
2023-05-03T05:23:13.284Z,2.11
2023-05-03T05:24:13.297Z,2.20
2023-05-03T05:25:13.311Z,2.56
2023-05-03T05:26:13.319Z,2.17
2023-05-03T05:27:13.349Z,2.30
2023-05-03T05:28:13.381Z,2.06
2023-05-03T05:29:13.408Z,1.68
2023-05-03T05:30:13.409Z,2.45
2023-05-03T05:31:13.513Z,2.31
2023-05-03T05:32:13.449Z,1.93
2023-05-03T05:33:13.507Z,2.16
2023-05-03T05:34:13.461Z,2.07
2023-05-03T05:35:13.479Z,1.73
2023-05-03T05:36:13.473Z,1.59
2023-05-03T05:37:13.535Z,1.67
2023-05-03T05:38:13.548Z,1.86
2023-05-03T05:39:13.508Z,1.72
2023-05-03T05:40:13.532Z,1.54
2023-05-03T05:41:13.559Z,2.14
2023-05-03T05:42:13.546Z,2.17
2023-05-03T05:43:13.547Z,2.53
2023-05-03T05:44:13.566Z,2.08
2023-05-03T05:45:13.622Z,3.62
2023-05-03T05:46:13.590Z,4.08
2023-05-03T05:47:13.650Z,4.67
2023-05-03T05:48:13.657Z,5.41
2023-05-03T05:49:13.655Z,4.36
2023-05-03T05:50:18.357Z,4.25
2023-05-03T05:51:14.670Z,4.10
2023-05-03T05:52:13.695Z,4.08
2023-05-03T05:53:13.698Z,3.56
2023-05-03T05:54:13.696Z,3.42
2023-05-03T05:55:13.753Z,3.65
2023-05-03T05:56:13.744Z,2.52
2023-05-03T05:57:13.804Z,2.68
2023-05-03T05:58:13.788Z,3.16
2023-05-03T05:59:13.758Z,3.14
2023-05-03T06:00:13.805Z,3.66
2023-05-03T06:01:13.795Z,2.74
2023-05-03T06:02:13.863Z,2.82
2023-05-03T06:03:13.835Z,2.70
2023-05-03T06:04:13.887Z,2.33
2023-05-03T06:05:13.901Z,2.51
2023-05-03T06:06:13.898Z,2.83
2023-05-03T06:07:13.869Z,2.55
2023-05-03T06:08:13.920Z,2.44
2023-05-03T06:09:24.250Z,2.47
2023-05-03T06:10:14.897Z,3.33
2023-05-03T06:11:13.937Z,2.83
2023-05-03T06:12:13.919Z,3.57
2023-05-03T06:13:14.042Z,3.06
2023-05-03T06:14:13.942Z,2.57
2023-05-03T06:15:13.944Z,3.02
2023-05-03T06:16:13.979Z,2.93
2023-05-03T06:17:14.059Z,3.21
2023-05-03T06:18:14.074Z,2.99
2023-05-03T06:19:14.033Z,2.67
2023-05-03T06:20:14.082Z,2.89
2023-05-03T06:21:14.050Z,3.34
2023-05-03T06:22:14.071Z,3.02
2023-05-03T06:23:14.094Z,3.16
2023-05-03T06:24:14.113Z,2.92
2023-05-03T06:25:15.453Z,3.35
2023-05-03T06:26:14.139Z,3.57
2023-05-03T06:27:14.162Z,3.29
2023-05-03T06:28:14.155Z,2.79
2023-05-03T06:29:14.203Z,3.66
2023-05-03T06:30:14.234Z,3.27
2023-05-03T06:31:14.267Z,3.08
2023-05-03T06:32:14.229Z,3.19
2023-05-03T06:33:14.238Z,3.24
2023-05-03T06:34:14.270Z,2.84
2023-05-03T06:35:14.312Z,3.41
2023-05-03T06:36:14.285Z,2.97
2023-05-03T06:37:14.312Z,2.94
2023-05-03T06:38:14.348Z,3.61
2023-05-03T06:39:14.327Z,3.20
2023-05-03T06:40:14.340Z,3.14
2023-05-03T06:41:14.440Z,3.10
2023-05-03T06:42:14.390Z,3.26
2023-05-03T06:43:14.416Z,3.69
2023-05-03T06:44:14.432Z,3.01
2023-05-03T06:45:14.468Z,3.21
2023-05-03T06:46:14.565Z,3.67
2023-05-03T06:47:14.484Z,3.36
2023-05-03T06:48:14.537Z,3.27
2023-05-03T06:49:14.499Z,3.44
2023-05-03T06:50:14.593Z,3.71
2023-05-03T06:51:14.544Z,3.19
2023-05-03T06:52:14.582Z,3.47
2023-05-03T06:53:14.569Z,3.12
2023-05-03T06:54:14.596Z,3.30
2023-05-03T06:55:14.612Z,3.18
2023-05-03T06:56:14.639Z,3.34
2023-05-03T06:57:14.651Z,3.03
2023-05-03T06:58:14.710Z,2.90
2023-05-03T06:59:14.699Z,3.43
2023-05-03T07:00:14.737Z,3.37
2023-05-03T07:01:14.805Z,2.47
2023-05-03T07:02:14.814Z,3.44
2023-05-03T07:03:14.856Z,3.12
2023-05-03T07:04:14.851Z,3.89
2023-05-03T07:05:14.855Z,2.96
2023-05-03T07:06:14.859Z,3.24
2023-05-03T07:07:14.996Z,3.55
2023-05-03T07:08:14.898Z,2.69
2023-05-03T07:09:14.891Z,2.99
2023-05-03T07:10:14.941Z,2.38
2023-05-03T07:11:14.976Z,2.99
2023-05-03T07:12:15.084Z,3.25
2023-05-03T07:13:15.097Z,2.99
2023-05-03T07:14:15.152Z,2.89
2023-05-03T07:15:15.170Z,2.75
2023-05-03T07:16:15.240Z,2.75
2023-05-03T07:17:15.321Z,2.95
2023-05-03T07:18:15.357Z,2.66
2023-05-03T07:19:15.402Z,2.13
2023-05-03T07:20:15.418Z,2.57
2023-05-03T07:21:15.463Z,2.40
2023-05-03T07:22:15.497Z,2.55
2023-05-03T07:23:15.500Z,2.75
2023-05-03T07:24:15.514Z,3.42
2023-05-03T07:25:15.591Z,2.55
2023-05-03T07:26:15.548Z,2.19
2023-05-03T07:27:15.582Z,2.54
2023-05-03T07:28:15.603Z,2.78
2023-05-03T07:29:15.618Z,2.54
2023-05-03T07:30:15.735Z,2.56
2023-05-03T07:31:15.588Z,2.67
2023-05-03T07:32:15.663Z,2.30
2023-05-03T07:33:15.737Z,2.75
2023-05-03T07:34:15.605Z,3.09
2023-05-03T07:35:15.628Z,2.23
2023-05-03T07:36:15.656Z,2.73
2023-05-03T07:37:15.843Z,1.77
2023-05-03T07:38:15.701Z,2.68
2023-05-03T07:39:15.671Z,2.83
2023-05-03T07:40:15.687Z,2.43
2023-05-03T07:41:15.689Z,2.34
2023-05-03T07:42:15.733Z,1.99
2023-05-03T07:43:15.734Z,2.46
2023-05-03T07:44:15.731Z,2.30
2023-05-03T07:45:15.840Z,2.14
2023-05-03T07:46:15.810Z,2.79
2023-05-03T07:47:15.770Z,1.56
2023-05-03T07:48:15.784Z,2.40
2023-05-03T07:49:15.804Z,2.59
2023-05-03T07:50:15.784Z,1.33
2023-05-03T07:51:15.781Z,2.78
2023-05-03T07:52:15.871Z,2.45
2023-05-03T07:53:15.796Z,2.32
2023-05-03T07:54:15.809Z,2.48
2023-05-03T07:55:15.953Z,2.69
2023-05-03T07:56:15.829Z,2.26
2023-05-03T07:57:15.819Z,2.07
2023-05-03T07:58:15.830Z,3.09
2023-05-03T07:59:15.831Z,2.48
2023-05-03T08:00:15.841Z,2.50
2023-05-03T08:01:15.846Z,1.71
2023-05-03T08:02:15.885Z,2.07
2023-05-03T08:03:16.098Z,2.79
2023-05-03T08:04:16.167Z,2.47
2023-05-03T08:05:16.061Z,2.77
2023-05-03T08:06:15.886Z,2.81
2023-05-03T08:07:15.854Z,2.73
2023-05-03T08:08:15.887Z,2.46
2023-05-03T08:09:15.860Z,2.07
2023-05-03T08:10:15.887Z,2.52
2023-05-03T08:11:15.879Z,2.15
2023-05-03T08:12:15.895Z,1.89
2023-05-03T08:13:15.936Z,1.66
2023-05-03T08:14:15.932Z,1.99
2023-05-03T08:15:15.922Z,1.99
2023-05-03T08:16:15.986Z,2.24
2023-05-03T08:17:15.939Z,1.91
2023-05-03T08:18:15.989Z,2.21
2023-05-03T08:19:15.956Z,2.04
2023-05-03T08:20:15.984Z,2.07
2023-05-03T08:21:15.971Z,1.84
2023-05-03T08:22:15.988Z,1.90
2023-05-03T08:23:15.995Z,2.20
2023-05-03T08:24:16.208Z,1.54
2023-05-03T08:25:16.010Z,2.25
2023-05-03T08:26:15.982Z,2.40
2023-05-03T08:27:15.981Z,1.56
2023-05-03T08:28:16.014Z,1.93
2023-05-03T08:29:16.006Z,2.13
2023-05-03T08:30:15.994Z,2.24
2023-05-03T08:31:15.984Z,1.49
2023-05-03T08:32:16.011Z,1.65
2023-05-03T08:33:16.021Z,1.99
2023-05-03T08:34:16.070Z,2.89
2023-05-03T08:35:16.143Z,2.52
2023-05-03T08:36:16.211Z,2.30
2023-05-03T08:37:16.289Z,2.16
2023-05-03T08:38:16.361Z,2.42
2023-05-03T08:39:16.475Z,2.43
2023-05-03T08:40:16.503Z,2.36
2023-05-03T08:41:16.603Z,2.28
2023-05-03T08:42:16.639Z,2.85
2023-05-03T08:43:16.702Z,2.37
2023-05-03T08:44:16.727Z,2.00
2023-05-03T08:45:16.771Z,1.96
2023-05-03T08:46:16.841Z,2.29
2023-05-03T08:47:16.830Z,2.17
2023-05-03T08:48:16.959Z,2.38
2023-05-03T08:49:16.853Z,2.23
2023-05-03T08:50:16.855Z,2.49
2023-05-03T08:51:16.875Z,2.30
2023-05-03T08:52:16.882Z,1.55
2023-05-03T08:53:16.902Z,1.99
2023-05-03T08:54:16.922Z,2.55
2023-05-03T08:55:16.904Z,2.68
2023-05-03T08:56:16.911Z,2.36
2023-05-03T08:57:16.980Z,2.37
2023-05-03T08:58:16.975Z,1.73
2023-05-03T08:59:16.966Z,2.28
2023-05-03T09:00:16.981Z,1.93
2023-05-03T09:01:16.985Z,2.64
2023-05-03T09:02:17.021Z,1.99
2023-05-03T09:03:17.107Z,3.08
2023-05-03T09:04:17.112Z,2.76
2023-05-03T09:05:17.100Z,2.66
2023-05-03T09:06:17.080Z,2.39
2023-05-03T09:07:17.061Z,2.57
2023-05-03T09:08:17.231Z,2.62
2023-05-03T09:09:17.077Z,3.01
2023-05-03T09:10:17.099Z,2.72
2023-05-03T09:11:17.102Z,2.95
2023-05-03T09:12:17.110Z,2.83
2023-05-03T09:13:17.785Z,3.32
2023-05-03T09:14:17.191Z,2.95
2023-05-03T09:15:17.116Z,2.91
2023-05-03T09:16:17.145Z,2.71
2023-05-03T09:17:17.120Z,3.08
2023-05-03T09:18:17.242Z,2.79
2023-05-03T09:19:17.179Z,3.03
2023-05-03T09:20:17.157Z,2.23
2023-05-03T09:21:17.172Z,2.68
2023-05-03T09:22:17.188Z,2.89
2023-05-03T09:23:17.225Z,3.07
2023-05-03T09:24:17.257Z,2.94
2023-05-03T09:25:17.260Z,2.57
2023-05-03T09:26:17.279Z,2.90
2023-05-03T09:27:17.299Z,2.65
2023-05-03T09:28:17.385Z,2.46
2023-05-03T09:29:17.323Z,2.24
2023-05-03T09:30:17.332Z,3.09
2023-05-03T09:31:17.339Z,2.73
2023-05-03T09:32:17.447Z,2.60
2023-05-03T09:33:17.366Z,3.02
2023-05-03T09:34:17.393Z,2.77
2023-05-03T09:35:17.410Z,2.84
2023-05-03T09:36:17.406Z,2.95
2023-05-03T09:37:17.442Z,2.63
2023-05-03T09:38:17.446Z,2.92
2023-05-03T09:39:17.474Z,2.75
2023-05-03T09:40:17.487Z,2.57
2023-05-03T09:41:17.581Z,2.80
2023-05-03T09:42:17.573Z,3.06
2023-05-03T09:43:19.216Z,3.38
2023-05-03T09:44:17.595Z,2.15
2023-05-03T09:45:17.596Z,2.42
2023-05-03T09:46:17.610Z,2.30
2023-05-03T09:47:17.614Z,2.14
2023-05-03T09:48:17.648Z,2.08
2023-05-03T09:49:18.305Z,2.21
2023-05-03T09:50:17.681Z,2.62
2023-05-03T09:51:17.608Z,1.97
2023-05-03T09:52:17.615Z,2.02
2023-05-03T09:53:17.624Z,2.21
2023-05-03T09:54:17.655Z,2.30
2023-05-03T09:55:17.651Z,2.08
2023-05-03T09:56:17.635Z,2.03
2023-05-03T09:57:17.674Z,1.96
2023-05-03T09:58:17.664Z,2.03
2023-05-03T09:59:17.658Z,2.04
2023-05-03T10:00:17.690Z,1.82
2023-05-03T10:01:17.739Z,1.88
2023-05-03T10:02:17.727Z,1.37
2023-05-03T10:03:17.731Z,2.06
2023-05-03T10:04:17.934Z,1.59
2023-05-03T10:05:17.868Z,1.82
2023-05-03T10:06:17.957Z,1.89
2023-05-03T10:07:17.886Z,2.07
2023-05-03T10:08:17.922Z,1.82
2023-05-03T10:09:17.909Z,2.28
2023-05-03T10:10:17.989Z,1.65
2023-05-03T10:11:17.943Z,1.97
2023-05-03T10:12:18.099Z,2.29
2023-05-03T10:13:17.991Z,1.85
2023-05-03T10:14:17.926Z,2.04
2023-05-03T10:15:17.934Z,1.74
2023-05-03T10:16:17.985Z,1.36
2023-05-03T10:17:17.943Z,2.06
2023-05-03T10:18:18.007Z,1.84
2023-05-03T10:19:17.930Z,1.41
2023-05-03T10:20:18.029Z,1.51
2023-05-03T10:21:17.997Z,1.35
2023-05-03T10:22:17.930Z,1.31
2023-05-03T10:23:17.946Z,1.73
2023-05-03T10:24:17.947Z,1.76
2023-05-03T10:25:17.944Z,1.48
2023-05-03T10:26:18.066Z,1.83
2023-05-03T10:27:17.923Z,1.70
2023-05-03T10:28:17.928Z,1.77
2023-05-03T10:29:17.919Z,1.31
2023-05-03T10:30:17.958Z,1.98
2023-05-03T10:31:17.996Z,2.28
2023-05-03T10:32:17.937Z,1.34
2023-05-03T10:33:17.951Z,1.69
2023-05-03T10:34:17.918Z,1.67
2023-05-03T10:35:17.922Z,1.16
2023-05-03T10:36:17.926Z,1.08
2023-05-03T10:37:17.937Z,1.15
2023-05-03T10:38:17.963Z,1.44
2023-05-03T10:39:17.950Z,1.56
2023-05-03T10:40:18.023Z,1.15
2023-05-03T10:41:17.962Z,0.92
2023-05-03T10:42:18.010Z,0.77
2023-05-03T10:43:18.116Z,1.01
2023-05-03T10:44:17.943Z,1.36
2023-05-03T10:45:17.949Z,0.88
2023-05-03T10:46:17.994Z,1.31
2023-05-03T10:47:17.933Z,1.35
2023-05-03T10:48:17.991Z,1.27
2023-05-03T10:49:18.040Z,1.11
2023-05-03T10:50:18.048Z,2.11
2023-05-03T10:51:18.112Z,0.95
2023-05-03T10:52:18.166Z,1.56
2023-05-03T10:53:18.240Z,1.08
2023-05-03T10:54:18.280Z,1.05
2023-05-03T10:55:18.362Z,1.20
2023-05-03T10:56:18.448Z,1.14
2023-05-03T10:57:18.483Z,0.79
2023-05-03T10:58:18.674Z,1.38
2023-05-03T10:59:18.579Z,1.35
2023-05-03T11:00:18.641Z,1.13
2023-05-03T11:01:18.741Z,1.33
2023-05-03T11:03:37.529Z,0.65
2023-05-03T11:04:37.668Z,1.03
2023-05-03T11:05:37.631Z,1.30
2023-05-03T11:06:37.832Z,1.25
2023-05-03T11:07:37.608Z,1.11
2023-05-03T11:08:37.813Z,1.21
2023-05-03T11:09:37.584Z,1.32
2023-05-03T11:10:37.577Z,0.86
2023-05-03T11:11:37.701Z,0.93
2023-05-03T11:12:37.536Z,1.00
2023-05-03T11:13:37.585Z,0.88
2023-05-03T11:14:37.523Z,0.84
2023-05-03T11:15:37.492Z,0.68
2023-05-03T11:16:37.525Z,1.00
2023-05-03T11:17:37.497Z,0.92
2023-05-03T11:18:37.489Z,1.17
2023-05-03T11:19:37.549Z,1.24
2023-05-03T11:20:37.599Z,1.27
2023-05-03T11:21:37.618Z,1.16
2023-05-03T11:22:37.667Z,0.92
2023-05-03T11:23:37.907Z,1.39
2023-05-03T11:24:37.681Z,1.14
2023-05-03T11:25:37.716Z,1.23
2023-05-03T11:26:37.768Z,1.10
2023-05-03T11:27:37.798Z,0.64
2023-05-03T11:28:37.813Z,0.78
2023-05-03T11:29:37.794Z,1.15
2023-05-03T11:30:37.804Z,0.79
2023-05-03T11:31:37.890Z,0.50
2023-05-03T11:32:37.911Z,0.66
2023-05-03T11:33:37.924Z,0.99
2023-05-03T11:34:37.957Z,0.98
2023-05-03T11:35:38.087Z,0.93
2023-05-03T11:36:38.196Z,0.52
2023-05-03T11:37:38.086Z,1.03
2023-05-03T11:38:38.130Z,0.88
2023-05-03T11:39:38.153Z,0.93
2023-05-03T11:40:38.157Z,0.97
2023-05-03T11:41:38.200Z,1.01
2023-05-03T11:42:38.253Z,0.54
2023-05-03T11:43:38.295Z,0.81
2023-05-03T11:44:38.368Z,1.18
2023-05-03T11:45:38.450Z,0.84
2023-05-03T11:46:38.517Z,0.47
2023-05-03T11:47:38.545Z,0.94
2023-05-03T11:48:38.711Z,0.99
2023-05-03T11:49:38.517Z,0.56
2023-05-03T11:50:38.535Z,0.60
2023-05-03T11:51:38.610Z,0.59
2023-05-03T11:52:38.593Z,0.85
2023-05-03T11:53:38.658Z,1.16
2023-05-03T11:54:38.762Z,1.16
2023-05-03T11:55:38.916Z,0.91
2023-05-03T11:56:38.980Z,0.64
2023-05-03T11:57:38.878Z,0.49
2023-05-03T11:58:38.907Z,1.03
2023-05-03T11:59:38.986Z,0.89
2023-05-03T12:00:38.995Z,0.89
2023-05-03T12:01:39.005Z,0.69
2023-05-03T12:02:39.151Z,0.83
2023-05-03T12:03:39.369Z,0.83
2023-05-03T12:04:39.367Z,0.95
2023-05-03T12:05:39.639Z,0.93
2023-05-03T12:06:40.815Z,0.72
2023-05-03T12:07:39.438Z,0.78
2023-05-03T12:08:42.551Z,0.56
2023-05-03T12:09:41.042Z,0.59
2023-05-03T12:10:39.160Z,0.82
2023-05-03T12:11:40.084Z,0.65
2023-05-03T12:12:43.365Z,1.11
2023-05-03T12:13:40.688Z,1.11
2023-05-03T12:14:39.324Z,0.83
2023-05-03T12:15:40.603Z,1.01
2023-05-03T12:16:38.969Z,0.65
2023-05-03T12:17:39.817Z,0.63
2023-05-03T12:18:40.016Z,0.74
2023-05-03T12:19:39.514Z,0.55
2023-05-03T12:21:39.125Z,0.84
2023-05-03T12:22:39.062Z,0.76
2023-05-03T12:23:38.884Z,0.76
2023-05-03T12:24:39.596Z,0.84
2023-05-03T12:25:40.230Z,0.98
2023-05-03T12:26:38.714Z,1.20
2023-05-03T12:27:40.581Z,0.83
2023-05-03T12:28:38.764Z,0.89
2023-05-03T12:29:40.669Z,0.66
2023-05-03T12:30:40.756Z,0.76
2023-05-03T12:31:39.528Z,0.57
2023-05-03T12:32:39.278Z,0.83
2023-05-03T12:33:39.064Z,1.00
2023-05-03T12:35:40.850Z,1.11
2023-05-03T12:36:38.984Z,1.31
2023-05-03T12:37:38.799Z,1.36
2023-05-03T12:38:40.416Z,1.39
2023-05-03T12:39:40.088Z,1.52
2023-05-03T12:40:39.156Z,1.34
2023-05-03T12:42:42.746Z,1.17
2023-05-03T12:43:38.710Z,1.25
2023-05-03T12:44:41.808Z,1.19
2023-05-03T12:45:40.740Z,0.94
2023-05-03T12:46:38.954Z,1.38
2023-05-03T12:47:38.741Z,0.95
2023-05-03T12:48:38.729Z,1.71
2023-05-03T12:49:39.691Z,1.04
2023-05-03T12:50:39.380Z,1.15
2023-05-03T12:51:42.297Z,1.40
2023-05-03T12:52:39.127Z,1.04
2023-05-03T12:53:39.131Z,1.29
2023-05-03T12:54:41.452Z,1.31
2023-05-03T12:55:43.399Z,0.84
2023-05-03T12:56:40.758Z,1.07
2023-05-03T12:57:38.543Z,1.69
2023-05-03T12:59:01.520Z,1.23
2023-05-03T12:59:41.771Z,1.25
2023-05-03T13:00:45.492Z,1.23
2023-05-03T13:03:19.353Z,0.86
2023-05-03T13:03:43.697Z,1.29
2023-05-03T13:05:39.524Z,0.61
2023-05-03T13:06:42.138Z,1.46
2023-05-03T13:07:43.213Z,0.50
2023-05-03T13:08:45.565Z,1.12
2023-05-03T13:10:39.408Z,1.12
2023-05-03T13:11:38.241Z,2.32
2023-05-03T13:12:38.069Z,1.14
2023-05-03T13:13:38.109Z,1.20
2023-05-03T13:14:38.102Z,1.32
2023-05-03T13:15:38.021Z,1.30
2023-05-03T13:16:38.066Z,1.26
2023-05-03T13:17:38.002Z,0.44
2023-05-03T13:18:38.001Z,1.38
2023-05-03T13:19:37.957Z,1.33
2023-05-03T13:20:37.953Z,1.10
2023-05-03T13:21:37.948Z,1.24
2023-05-03T13:22:37.920Z,0.91
2023-05-03T13:23:38.012Z,1.18
2023-05-03T13:24:38.057Z,0.91
2023-05-03T13:25:38.166Z,1.22